sensor_id;sensor_type;location;lat;lon;timestamp;P1;durP1;ratioP1;P2;durP2;ratioP2
48006;SDS011;33771;48.180;11.400;2022-07-29T00:01:32;3.58;;;1.70;;
48006;SDS011;33771;48.180;11.400;2022-07-29T00:03:57;2.80;;;1.80;;
48006;SDS011;33771;48.180;11.400;2022-07-29T00:06:23;4.05;;;2.00;;
48006;SDS011;33771;48.180;11.400;2022-07-29T00:08:48;4.30;;;2.10;;
48006;SDS011;33771;48.180;11.400;2022-07-29T00:11:14;3.60;;;1.92;;
48006;SDS011;33771;48.180;11.400;2022-07-29T00:13:39;4.65;;;1.90;;
48006;SDS011;33771;48.180;11.400;2022-07-29T00:16:05;4.43;;;2.20;;
48006;SDS011;33771;48.180;11.400;2022-07-29T00:18:31;4.10;;;1.92;;
48006;SDS011;33771;48.180;11.400;2022-07-29T00:20:56;2.55;;;1.63;;
48006;SDS011;33771;48.180;11.400;2022-07-29T00:23:22;3.15;;;1.75;;
48006;SDS011;33771;48.180;11.400;2022-07-29T00:25:47;4.38;;;2.08;;
48006;SDS011;33771;48.180;11.400;2022-07-29T00:28:13;3.80;;;1.90;;
48006;SDS011;33771;48.180;11.400;2022-07-29T00:30:39;3.42;;;1.80;;
48006;SDS011;33771;48.180;11.400;2022-07-29T00:33:06;3.63;;;2.05;;
48006;SDS011;33771;48.180;11.400;2022-07-29T00:35:32;4.20;;;2.35;;
48006;SDS011;33771;48.180;11.400;2022-07-29T00:38:10;4.72;;;2.30;;
48006;SDS011;33771;48.180;11.400;2022-07-29T00:40:40;2.78;;;1.80;;
48006;SDS011;33771;48.180;11.400;2022-07-29T00:43:06;3.20;;;1.80;;
48006;SDS011;33771;48.180;11.400;2022-07-29T00:45:32;5.70;;;2.25;;
48006;SDS011;33771;48.180;11.400;2022-07-29T00:47:58;3.08;;;1.80;;
48006;SDS011;33771;48.180;11.400;2022-07-29T00:50:24;2.58;;;1.67;;
48006;SDS011;33771;48.180;11.400;2022-07-29T00:52:51;5.97;;;2.25;;
48006;SDS011;33771;48.180;11.400;2022-07-29T00:55:17;2.55;;;1.95;;
48006;SDS011;33771;48.180;11.400;2022-07-29T00:57:44;3.55;;;2.08;;
48006;SDS011;33771;48.180;11.400;2022-07-29T01:00:12;3.17;;;2.10;;
48006;SDS011;33771;48.180;11.400;2022-07-29T01:02:47;2.92;;;1.90;;
48006;SDS011;33771;48.180;11.400;2022-07-29T01:05:14;5.05;;;2.28;;
48006;SDS011;33771;48.180;11.400;2022-07-29T01:07:41;3.03;;;1.92;;
48006;SDS011;33771;48.180;11.400;2022-07-29T01:10:08;4.60;;;2.03;;
48006;SDS011;33771;48.180;11.400;2022-07-29T01:12:36;2.63;;;1.83;;
48006;SDS011;33771;48.180;11.400;2022-07-29T01:15:03;3.85;;;2.00;;
48006;SDS011;33771;48.180;11.400;2022-07-29T01:20:45;3.97;;;2.00;;
48006;SDS011;33771;48.180;11.400;2022-07-29T01:23:52;4.20;;;2.03;;
48006;SDS011;33771;48.180;11.400;2022-07-29T01:26:42;2.85;;;1.80;;
48006;SDS011;33771;48.180;11.400;2022-07-29T01:29:43;2.53;;;1.73;;
48006;SDS011;33771;48.180;11.400;2022-07-29T01:32:13;2.30;;;1.83;;
48006;SDS011;33771;48.180;11.400;2022-07-29T01:35:03;2.60;;;2.00;;
48006;SDS011;33771;48.180;11.400;2022-07-29T01:37:38;3.10;;;1.77;;
48006;SDS011;33771;48.180;11.400;2022-07-29T01:40:31;2.53;;;1.80;;
48006;SDS011;33771;48.180;11.400;2022-07-29T01:43:16;2.55;;;1.80;;
48006;SDS011;33771;48.180;11.400;2022-07-29T01:45:46;2.33;;;1.55;;
48006;SDS011;33771;48.180;11.400;2022-07-29T01:48:19;2.65;;;1.60;;
48006;SDS011;33771;48.180;11.400;2022-07-29T01:50:49;3.38;;;1.60;;
48006;SDS011;33771;48.180;11.400;2022-07-29T01:53:26;1.83;;;1.50;;
48006;SDS011;33771;48.180;11.400;2022-07-29T01:55:57;2.50;;;1.77;;
48006;SDS011;33771;48.180;11.400;2022-07-29T01:58:26;2.08;;;1.70;;
48006;SDS011;33771;48.180;11.400;2022-07-29T02:00:55;2.15;;;1.90;;
48006;SDS011;33771;48.180;11.400;2022-07-29T02:03:22;2.88;;;1.70;;
48006;SDS011;33771;48.180;11.400;2022-07-29T02:05:48;2.50;;;1.73;;
48006;SDS011;33771;48.180;11.400;2022-07-29T02:08:16;2.83;;;1.80;;
48006;SDS011;33771;48.180;11.400;2022-07-29T02:10:44;4.65;;;1.80;;
48006;SDS011;33771;48.180;11.400;2022-07-29T02:13:12;2.30;;;1.75;;
48006;SDS011;33771;48.180;11.400;2022-07-29T02:15:38;2.85;;;1.77;;
48006;SDS011;33771;48.180;11.400;2022-07-29T02:18:08;2.92;;;1.73;;
48006;SDS011;33771;48.180;11.400;2022-07-29T02:20:38;2.55;;;1.60;;
48006;SDS011;33771;48.180;11.400;2022-07-29T02:23:05;3.30;;;1.75;;
48006;SDS011;33771;48.180;11.400;2022-07-29T02:25:35;2.20;;;1.80;;
48006;SDS011;33771;48.180;11.400;2022-07-29T02:28:02;2.05;;;1.83;;
48006;SDS011;33771;48.180;11.400;2022-07-29T02:30:30;2.78;;;1.65;;
48006;SDS011;33771;48.180;11.400;2022-07-29T02:32:56;3.88;;;1.90;;
48006;SDS011;33771;48.180;11.400;2022-07-29T02:35:25;3.45;;;1.70;;
48006;SDS011;33771;48.180;11.400;2022-07-29T02:37:52;2.35;;;1.70;;
48006;SDS011;33771;48.180;11.400;2022-07-29T02:40:38;1.98;;;1.73;;
48006;SDS011;33771;48.180;11.400;2022-07-29T02:43:05;5.03;;;2.10;;
48006;SDS011;33771;48.180;11.400;2022-07-29T02:45:32;2.83;;;1.90;;
48006;SDS011;33771;48.180;11.400;2022-07-29T02:47:59;3.33;;;1.90;;
48006;SDS011;33771;48.180;11.400;2022-07-29T02:50:37;2.13;;;1.63;;
48006;SDS011;33771;48.180;11.400;2022-07-29T02:53:13;5.07;;;1.90;;
48006;SDS011;33771;48.180;11.400;2022-07-29T02:55:46;2.53;;;2.17;;
48006;SDS011;33771;48.180;11.400;2022-07-29T02:58:33;4.32;;;2.10;;
48006;SDS011;33771;48.180;11.400;2022-07-29T03:01:03;2.63;;;1.83;;
48006;SDS011;33771;48.180;11.400;2022-07-29T03:03:35;2.10;;;1.80;;
48006;SDS011;33771;48.180;11.400;2022-07-29T03:06:03;3.20;;;1.95;;
48006;SDS011;33771;48.180;11.400;2022-07-29T03:08:29;3.78;;;1.90;;
48006;SDS011;33771;48.180;11.400;2022-07-29T03:10:57;4.40;;;1.83;;
48006;SDS011;33771;48.180;11.400;2022-07-29T03:13:23;2.78;;;1.98;;
48006;SDS011;33771;48.180;11.400;2022-07-29T03:15:50;3.38;;;2.20;;
48006;SDS011;33771;48.180;11.400;2022-07-29T03:18:17;4.18;;;2.30;;
48006;SDS011;33771;48.180;11.400;2022-07-29T03:20:43;3.33;;;2.45;;
48006;SDS011;33771;48.180;11.400;2022-07-29T03:23:08;3.40;;;2.50;;
48006;SDS011;33771;48.180;11.400;2022-07-29T03:25:34;3.47;;;2.30;;
48006;SDS011;33771;48.180;11.400;2022-07-29T03:28:00;4.40;;;2.45;;
48006;SDS011;33771;48.180;11.400;2022-07-29T03:30:26;2.72;;;2.03;;
48006;SDS011;33771;48.180;11.400;2022-07-29T03:32:52;3.28;;;2.20;;
48006;SDS011;33771;48.180;11.400;2022-07-29T03:35:18;3.08;;;2.35;;
48006;SDS011;33771;48.180;11.400;2022-07-29T03:37:47;3.00;;;2.10;;
48006;SDS011;33771;48.180;11.400;2022-07-29T03:40:14;3.10;;;2.03;;
48006;SDS011;33771;48.180;11.400;2022-07-29T03:42:45;4.47;;;2.53;;
48006;SDS011;33771;48.180;11.400;2022-07-29T03:45:12;3.63;;;2.22;;
48006;SDS011;33771;48.180;11.400;2022-07-29T03:47:44;5.03;;;2.45;;
48006;SDS011;33771;48.180;11.400;2022-07-29T03:50:13;4.90;;;2.40;;
48006;SDS011;33771;48.180;11.400;2022-07-29T03:52:41;3.78;;;2.50;;
48006;SDS011;33771;48.180;11.400;2022-07-29T03:55:07;4.97;;;2.45;;
48006;SDS011;33771;48.180;11.400;2022-07-29T03:57:34;3.45;;;2.40;;
48006;SDS011;33771;48.180;11.400;2022-07-29T04:00:00;6.20;;;2.30;;
48006;SDS011;33771;48.180;11.400;2022-07-29T04:02:28;7.45;;;3.00;;
48006;SDS011;33771;48.180;11.400;2022-07-29T04:04:54;3.70;;;2.65;;
48006;SDS011;33771;48.180;11.400;2022-07-29T04:07:20;4.05;;;2.40;;
48006;SDS011;33771;48.180;11.400;2022-07-29T04:09:45;3.60;;;2.33;;
48006;SDS011;33771;48.180;11.400;2022-07-29T04:12:11;4.35;;;2.80;;
48006;SDS011;33771;48.180;11.400;2022-07-29T04:14:36;3.33;;;2.67;;
48006;SDS011;33771;48.180;11.400;2022-07-29T04:17:02;3.80;;;2.50;;
48006;SDS011;33771;48.180;11.400;2022-07-29T04:19:29;5.25;;;2.67;;
48006;SDS011;33771;48.180;11.400;2022-07-29T04:21:56;4.10;;;2.70;;
48006;SDS011;33771;48.180;11.400;2022-07-29T04:24:23;3.83;;;2.58;;
48006;SDS011;33771;48.180;11.400;2022-07-29T04:26:48;4.13;;;2.30;;
48006;SDS011;33771;48.180;11.400;2022-07-29T04:29:14;2.90;;;2.40;;
48006;SDS011;33771;48.180;11.400;2022-07-29T04:31:40;4.18;;;2.38;;
48006;SDS011;33771;48.180;11.400;2022-07-29T04:34:06;4.70;;;2.47;;
48006;SDS011;33771;48.180;11.400;2022-07-29T04:36:32;5.93;;;2.55;;
48006;SDS011;33771;48.180;11.400;2022-07-29T04:38:58;3.42;;;2.20;;
48006;SDS011;33771;48.180;11.400;2022-07-29T04:41:23;2.72;;;2.20;;
48006;SDS011;33771;48.180;11.400;2022-07-29T04:43:49;3.67;;;2.67;;
48006;SDS011;33771;48.180;11.400;2022-07-29T04:46:15;3.10;;;2.40;;
48006;SDS011;33771;48.180;11.400;2022-07-29T04:48:40;5.28;;;2.17;;
48006;SDS011;33771;48.180;11.400;2022-07-29T04:51:06;3.33;;;2.30;;
48006;SDS011;33771;48.180;11.400;2022-07-29T04:53:32;3.63;;;2.20;;
48006;SDS011;33771;48.180;11.400;2022-07-29T04:55:58;3.83;;;2.35;;
48006;SDS011;33771;48.180;11.400;2022-07-29T04:58:23;2.80;;;2.10;;
48006;SDS011;33771;48.180;11.400;2022-07-29T05:00:49;4.05;;;2.42;;
48006;SDS011;33771;48.180;11.400;2022-07-29T05:03:15;4.30;;;2.40;;
48006;SDS011;33771;48.180;11.400;2022-07-29T05:05:42;3.53;;;2.63;;
48006;SDS011;33771;48.180;11.400;2022-07-29T05:08:07;3.08;;;2.40;;
48006;SDS011;33771;48.180;11.400;2022-07-29T05:10:36;4.72;;;2.38;;
48006;SDS011;33771;48.180;11.400;2022-07-29T05:13:05;4.25;;;2.50;;
48006;SDS011;33771;48.180;11.400;2022-07-29T05:15:35;5.07;;;2.60;;
48006;SDS011;33771;48.180;11.400;2022-07-29T05:18:01;3.20;;;2.55;;
48006;SDS011;33771;48.180;11.400;2022-07-29T05:20:27;3.95;;;2.75;;
48006;SDS011;33771;48.180;11.400;2022-07-29T05:22:57;4.43;;;2.70;;
48006;SDS011;33771;48.180;11.400;2022-07-29T05:25:24;4.28;;;2.67;;
48006;SDS011;33771;48.180;11.400;2022-07-29T05:27:50;4.65;;;3.00;;
48006;SDS011;33771;48.180;11.400;2022-07-29T05:30:16;6.18;;;2.88;;
48006;SDS011;33771;48.180;11.400;2022-07-29T05:32:42;5.95;;;3.00;;
48006;SDS011;33771;48.180;11.400;2022-07-29T05:35:08;4.40;;;2.70;;
48006;SDS011;33771;48.180;11.400;2022-07-29T05:37:34;2.95;;;2.40;;
48006;SDS011;33771;48.180;11.400;2022-07-29T05:39:59;3.08;;;2.42;;
48006;SDS011;33771;48.180;11.400;2022-07-29T05:42:25;3.67;;;2.45;;
48006;SDS011;33771;48.180;11.400;2022-07-29T05:44:51;3.63;;;2.17;;
48006;SDS011;33771;48.180;11.400;2022-07-29T05:47:17;2.20;;;1.60;;
48006;SDS011;33771;48.180;11.400;2022-07-29T05:49:43;3.70;;;1.90;;
48006;SDS011;33771;48.180;11.400;2022-07-29T05:52:08;2.47;;;1.63;;
48006;SDS011;33771;48.180;11.400;2022-07-29T05:54:34;2.45;;;1.88;;
48006;SDS011;33771;48.180;11.400;2022-07-29T05:57:00;1.98;;;1.60;;
48006;SDS011;33771;48.180;11.400;2022-07-29T05:59:26;2.00;;;1.60;;
48006;SDS011;33771;48.180;11.400;2022-07-29T06:01:52;3.75;;;2.00;;
48006;SDS011;33771;48.180;11.400;2022-07-29T06:04:17;3.63;;;2.28;;
48006;SDS011;33771;48.180;11.400;2022-07-29T06:06:43;4.72;;;2.10;;
48006;SDS011;33771;48.180;11.400;2022-07-29T06:09:08;3.53;;;1.95;;
48006;SDS011;33771;48.180;11.400;2022-07-29T06:11:34;2.58;;;1.63;;
48006;SDS011;33771;48.180;11.400;2022-07-29T06:13:59;3.83;;;1.65;;
48006;SDS011;33771;48.180;11.400;2022-07-29T06:16:25;3.08;;;1.52;;
48006;SDS011;33771;48.180;11.400;2022-07-29T06:18:50;3.03;;;1.70;;
48006;SDS011;33771;48.180;11.400;2022-07-29T06:21:17;1.80;;;1.30;;
48006;SDS011;33771;48.180;11.400;2022-07-29T06:23:46;4.20;;;1.40;;
48006;SDS011;33771;48.180;11.400;2022-07-29T06:26:11;2.08;;;1.52;;
48006;SDS011;33771;48.180;11.400;2022-07-29T06:28:37;1.67;;;1.52;;
48006;SDS011;33771;48.180;11.400;2022-07-29T06:31:02;4.82;;;1.55;;
48006;SDS011;33771;48.180;11.400;2022-07-29T06:33:28;3.35;;;1.70;;
48006;SDS011;33771;48.180;11.400;2022-07-29T06:35:54;5.28;;;1.70;;
48006;SDS011;33771;48.180;11.400;2022-07-29T06:38:20;3.42;;;1.50;;
48006;SDS011;33771;48.180;11.400;2022-07-29T06:40:45;3.13;;;1.40;;
48006;SDS011;33771;48.180;11.400;2022-07-29T06:43:34;2.72;;;1.30;;
48006;SDS011;33771;48.180;11.400;2022-07-29T06:46:07;2.22;;;1.60;;
48006;SDS011;33771;48.180;11.400;2022-07-29T06:48:34;1.65;;;1.35;;
48006;SDS011;33771;48.180;11.400;2022-07-29T06:51:01;3.53;;;1.38;;
48006;SDS011;33771;48.180;11.400;2022-07-29T06:53:27;2.47;;;1.50;;
48006;SDS011;33771;48.180;11.400;2022-07-29T06:55:53;2.83;;;1.38;;
48006;SDS011;33771;48.180;11.400;2022-07-29T06:58:18;1.90;;;1.40;;
48006;SDS011;33771;48.180;11.400;2022-07-29T07:00:45;1.50;;;1.40;;
48006;SDS011;33771;48.180;11.400;2022-07-29T07:03:12;2.53;;;1.60;;
48006;SDS011;33771;48.180;11.400;2022-07-29T07:05:38;2.90;;;1.30;;
48006;SDS011;33771;48.180;11.400;2022-07-29T07:08:04;2.47;;;1.50;;
48006;SDS011;33771;48.180;11.400;2022-07-29T07:10:30;1.90;;;1.30;;
48006;SDS011;33771;48.180;11.400;2022-07-29T07:12:55;2.10;;;1.30;;
48006;SDS011;33771;48.180;11.400;2022-07-29T07:15:21;2.00;;;1.50;;
48006;SDS011;33771;48.180;11.400;2022-07-29T07:17:47;2.05;;;1.30;;
48006;SDS011;33771;48.180;11.400;2022-07-29T07:20:14;2.58;;;1.48;;
48006;SDS011;33771;48.180;11.400;2022-07-29T07:22:40;1.98;;;1.27;;
48006;SDS011;33771;48.180;11.400;2022-07-29T07:25:06;3.55;;;1.40;;
48006;SDS011;33771;48.180;11.400;2022-07-29T07:27:31;2.95;;;1.20;;
48006;SDS011;33771;48.180;11.400;2022-07-29T07:29:57;2.55;;;1.08;;
48006;SDS011;33771;48.180;11.400;2022-07-29T07:32:22;2.28;;;1.15;;
48006;SDS011;33771;48.180;11.400;2022-07-29T07:34:48;4.13;;;2.00;;
48006;SDS011;33771;48.180;11.400;2022-07-29T07:37:14;5.25;;;1.80;;
48006;SDS011;33771;48.180;11.400;2022-07-29T07:39:40;2.97;;;1.40;;
48006;SDS011;33771;48.180;11.400;2022-07-29T07:42:05;4.18;;;1.52;;
48006;SDS011;33771;48.180;11.400;2022-07-29T07:44:31;3.42;;;1.38;;
48006;SDS011;33771;48.180;11.400;2022-07-29T07:46:57;2.53;;;1.23;;
48006;SDS011;33771;48.180;11.400;2022-07-29T07:49:23;2.75;;;1.50;;
48006;SDS011;33771;48.180;11.400;2022-07-29T07:51:48;3.33;;;1.45;;
48006;SDS011;33771;48.180;11.400;2022-07-29T07:54:14;2.00;;;1.55;;
48006;SDS011;33771;48.180;11.400;2022-07-29T07:56:40;1.70;;;1.25;;
48006;SDS011;33771;48.180;11.400;2022-07-29T07:59:05;3.33;;;1.40;;
48006;SDS011;33771;48.180;11.400;2022-07-29T08:01:31;3.00;;;1.67;;
48006;SDS011;33771;48.180;11.400;2022-07-29T08:03:56;1.70;;;1.40;;
48006;SDS011;33771;48.180;11.400;2022-07-29T08:06:22;2.85;;;1.52;;
48006;SDS011;33771;48.180;11.400;2022-07-29T08:08:49;2.30;;;1.38;;
48006;SDS011;33771;48.180;11.400;2022-07-29T08:11:15;3.53;;;1.40;;
48006;SDS011;33771;48.180;11.400;2022-07-29T08:13:41;6.68;;;1.33;;
48006;SDS011;33771;48.180;11.400;2022-07-29T08:16:08;2.65;;;1.40;;
48006;SDS011;33771;48.180;11.400;2022-07-29T08:18:37;4.18;;;1.70;;
48006;SDS011;33771;48.180;11.400;2022-07-29T08:21:04;2.90;;;1.50;;
48006;SDS011;33771;48.180;11.400;2022-07-29T08:23:30;2.53;;;1.55;;
48006;SDS011;33771;48.180;11.400;2022-07-29T08:26:03;2.80;;;1.67;;
48006;SDS011;33771;48.180;11.400;2022-07-29T08:28:35;3.15;;;1.70;;
48006;SDS011;33771;48.180;11.400;2022-07-29T08:31:05;2.08;;;1.67;;
48006;SDS011;33771;48.180;11.400;2022-07-29T08:33:32;3.45;;;1.40;;
48006;SDS011;33771;48.180;11.400;2022-07-29T08:35:58;2.78;;;1.20;;
48006;SDS011;33771;48.180;11.400;2022-07-29T08:38:24;3.50;;;1.30;;
48006;SDS011;33771;48.180;11.400;2022-07-29T08:40:51;2.47;;;1.40;;
48006;SDS011;33771;48.180;11.400;2022-07-29T08:43:17;5.38;;;1.60;;
48006;SDS011;33771;48.180;11.400;2022-07-29T08:45:44;4.55;;;1.63;;
48006;SDS011;33771;48.180;11.400;2022-07-29T08:48:12;4.57;;;1.67;;
48006;SDS011;33771;48.180;11.400;2022-07-29T08:50:39;5.68;;;2.10;;
48006;SDS011;33771;48.180;11.400;2022-07-29T08:53:07;2.85;;;1.88;;
48006;SDS011;33771;48.180;11.400;2022-07-29T08:55:38;2.55;;;1.73;;
48006;SDS011;33771;48.180;11.400;2022-07-29T08:58:06;3.35;;;1.80;;
48006;SDS011;33771;48.180;11.400;2022-07-29T09:00:32;3.53;;;1.80;;
48006;SDS011;33771;48.180;11.400;2022-07-29T09:03:00;3.05;;;1.90;;
48006;SDS011;33771;48.180;11.400;2022-07-29T09:05:27;3.50;;;1.67;;
48006;SDS011;33771;48.180;11.400;2022-07-29T09:07:53;8.25;;;2.20;;
48006;SDS011;33771;48.180;11.400;2022-07-29T09:10:19;3.63;;;2.10;;
48006;SDS011;33771;48.180;11.400;2022-07-29T09:12:45;3.58;;;1.90;;
48006;SDS011;33771;48.180;11.400;2022-07-29T09:15:11;3.22;;;1.85;;
48006;SDS011;33771;48.180;11.400;2022-07-29T09:17:44;2.55;;;1.85;;
48006;SDS011;33771;48.180;11.400;2022-07-29T09:20:11;2.92;;;1.92;;
48006;SDS011;33771;48.180;11.400;2022-07-29T09:22:39;3.95;;;1.77;;
48006;SDS011;33771;48.180;11.400;2022-07-29T09:25:04;3.28;;;2.03;;
48006;SDS011;33771;48.180;11.400;2022-07-29T09:27:30;3.00;;;1.88;;
48006;SDS011;33771;48.180;11.400;2022-07-29T09:29:57;3.40;;;1.90;;
48006;SDS011;33771;48.180;11.400;2022-07-29T09:32:30;3.13;;;1.90;;
48006;SDS011;33771;48.180;11.400;2022-07-29T09:37:43;2.83;;;1.80;;
48006;SDS011;33771;48.180;11.400;2022-07-29T09:40:13;3.65;;;1.70;;
48006;SDS011;33771;48.180;11.400;2022-07-29T09:42:43;3.60;;;1.83;;
48006;SDS011;33771;48.180;11.400;2022-07-29T09:45:11;4.60;;;1.85;;
48006;SDS011;33771;48.180;11.400;2022-07-29T09:47:47;3.83;;;1.88;;
48006;SDS011;33771;48.180;11.400;2022-07-29T09:50:15;2.67;;;2.03;;
48006;SDS011;33771;48.180;11.400;2022-07-29T09:52:45;3.40;;;2.03;;
48006;SDS011;33771;48.180;11.400;2022-07-29T09:55:12;6.03;;;1.70;;
48006;SDS011;33771;48.180;11.400;2022-07-29T09:57:38;2.75;;;1.90;;
48006;SDS011;33771;48.180;11.400;2022-07-29T10:00:14;5.53;;;2.10;;
48006;SDS011;33771;48.180;11.400;2022-07-29T10:02:42;4.05;;;1.92;;
48006;SDS011;33771;48.180;11.400;2022-07-29T10:05:22;3.13;;;2.08;;
48006;SDS011;33771;48.180;11.400;2022-07-29T10:07:55;4.43;;;1.95;;
48006;SDS011;33771;48.180;11.400;2022-07-29T10:10:22;3.17;;;2.05;;
48006;SDS011;33771;48.180;11.400;2022-07-29T10:12:58;6.35;;;2.25;;
48006;SDS011;33771;48.180;11.400;2022-07-29T10:15:26;4.00;;;1.90;;
48006;SDS011;33771;48.180;11.400;2022-07-29T10:17:54;2.95;;;2.25;;
48006;SDS011;33771;48.180;11.400;2022-07-29T10:20:21;5.88;;;1.95;;
48006;SDS011;33771;48.180;11.400;2022-07-29T10:22:48;2.10;;;1.85;;
48006;SDS011;33771;48.180;11.400;2022-07-29T10:25:15;4.45;;;2.10;;
48006;SDS011;33771;48.180;11.400;2022-07-29T10:27:43;5.72;;;2.08;;
48006;SDS011;33771;48.180;11.400;2022-07-29T10:30:09;3.83;;;1.70;;
48006;SDS011;33771;48.180;11.400;2022-07-29T10:35:48;5.85;;;2.10;;
48006;SDS011;33771;48.180;11.400;2022-07-29T10:41:24;6.75;;;2.15;;
48006;SDS011;33771;48.180;11.400;2022-07-29T10:44:21;4.95;;;2.20;;
48006;SDS011;33771;48.180;11.400;2022-07-29T10:46:48;2.97;;;1.70;;
48006;SDS011;33771;48.180;11.400;2022-07-29T10:49:25;2.63;;;1.90;;
48006;SDS011;33771;48.180;11.400;2022-07-29T11:07:31;4.25;;;2.15;;
48006;SDS011;33771;48.180;11.400;2022-07-29T11:12:55;4.60;;;2.15;;
48006;SDS011;33771;48.180;11.400;2022-07-29T11:15:21;3.40;;;1.90;;
48006;SDS011;33771;48.180;11.400;2022-07-29T11:26:20;2.67;;;1.80;;
48006;SDS011;33771;48.180;11.400;2022-07-29T11:31:16;6.32;;;1.75;;
48006;SDS011;33771;48.180;11.400;2022-07-29T11:33:56;2.40;;;1.60;;
48006;SDS011;33771;48.180;11.400;2022-07-29T11:36:22;4.43;;;1.85;;
48006;SDS011;33771;48.180;11.400;2022-07-29T11:38:48;4.47;;;1.70;;
48006;SDS011;33771;48.180;11.400;2022-07-29T11:43:45;4.32;;;1.85;;
48006;SDS011;33771;48.180;11.400;2022-07-29T11:46:12;3.20;;;1.75;;
48006;SDS011;33771;48.180;11.400;2022-07-29T11:48:42;6.25;;;2.00;;
48006;SDS011;33771;48.180;11.400;2022-07-29T11:51:09;4.97;;;1.77;;
48006;SDS011;33771;48.180;11.400;2022-07-29T11:53:36;4.40;;;2.10;;
48006;SDS011;33771;48.180;11.400;2022-07-29T11:56:03;3.33;;;1.80;;
48006;SDS011;33771;48.180;11.400;2022-07-29T11:58:32;5.55;;;2.10;;
48006;SDS011;33771;48.180;11.400;2022-07-29T12:00:58;7.00;;;1.67;;
48006;SDS011;33771;48.180;11.400;2022-07-29T12:03:25;3.38;;;1.90;;
48006;SDS011;33771;48.180;11.400;2022-07-29T12:05:52;4.15;;;1.65;;
48006;SDS011;33771;48.180;11.400;2022-07-29T12:08:18;5.88;;;1.90;;
48006;SDS011;33771;48.180;11.400;2022-07-29T12:10:47;3.72;;;1.80;;
48006;SDS011;33771;48.180;11.400;2022-07-29T12:13:18;5.32;;;1.80;;
48006;SDS011;33771;48.180;11.400;2022-07-29T12:15:52;10.65;;;1.90;;
48006;SDS011;33771;48.180;11.400;2022-07-29T12:18:19;4.68;;;1.70;;
48006;SDS011;33771;48.180;11.400;2022-07-29T12:20:45;5.07;;;2.00;;
48006;SDS011;33771;48.180;11.400;2022-07-29T12:23:12;5.95;;;1.88;;
48006;SDS011;33771;48.180;11.400;2022-07-29T12:25:39;6.47;;;1.85;;
48006;SDS011;33771;48.180;11.400;2022-07-29T12:28:06;3.80;;;1.90;;
48006;SDS011;33771;48.180;11.400;2022-07-29T12:30:41;7.57;;;1.95;;
48006;SDS011;33771;48.180;11.400;2022-07-29T12:35:42;4.95;;;1.90;;
48006;SDS011;33771;48.180;11.400;2022-07-29T12:38:10;4.35;;;1.70;;
48006;SDS011;33771;48.180;11.400;2022-07-29T12:40:37;5.13;;;1.83;;
48006;SDS011;33771;48.180;11.400;2022-07-29T12:43:10;3.55;;;2.10;;
48006;SDS011;33771;48.180;11.400;2022-07-29T12:45:42;3.60;;;1.83;;
48006;SDS011;33771;48.180;11.400;2022-07-29T12:48:09;5.85;;;1.90;;
48006;SDS011;33771;48.180;11.400;2022-07-29T12:50:36;10.05;;;2.20;;
48006;SDS011;33771;48.180;11.400;2022-07-29T12:53:16;3.45;;;1.90;;
48006;SDS011;33771;48.180;11.400;2022-07-29T12:55:46;5.03;;;1.80;;
48006;SDS011;33771;48.180;11.400;2022-07-29T12:58:25;4.03;;;1.75;;
48006;SDS011;33771;48.180;11.400;2022-07-29T13:03:53;3.78;;;2.17;;
48006;SDS011;33771;48.180;11.400;2022-07-29T13:06:35;4.50;;;1.90;;
48006;SDS011;33771;48.180;11.400;2022-07-29T13:11:49;4.35;;;1.80;;
48006;SDS011;33771;48.180;11.400;2022-07-29T13:14:32;7.75;;;2.13;;
48006;SDS011;33771;48.180;11.400;2022-07-29T13:17:12;3.13;;;1.98;;
48006;SDS011;33771;48.180;11.400;2022-07-29T13:20:07;4.43;;;1.90;;
48006;SDS011;33771;48.180;11.400;2022-07-29T13:22:37;2.65;;;1.80;;
48006;SDS011;33771;48.180;11.400;2022-07-29T13:25:03;4.78;;;2.50;;
48006;SDS011;33771;48.180;11.400;2022-07-29T13:27:32;6.10;;;1.80;;
48006;SDS011;33771;48.180;11.400;2022-07-29T13:30:00;5.72;;;1.90;;
48006;SDS011;33771;48.180;11.400;2022-07-29T13:32:28;2.42;;;1.33;;
48006;SDS011;33771;48.180;11.400;2022-07-29T13:34:55;2.67;;;1.95;;
48006;SDS011;33771;48.180;11.400;2022-07-29T13:37:21;2.50;;;1.83;;
48006;SDS011;33771;48.180;11.400;2022-07-29T13:39:47;3.70;;;1.75;;
48006;SDS011;33771;48.180;11.400;2022-07-29T13:42:17;3.35;;;1.92;;
48006;SDS011;33771;48.180;11.400;2022-07-29T13:44:43;2.40;;;1.63;;
48006;SDS011;33771;48.180;11.400;2022-07-29T13:47:08;4.07;;;1.75;;
48006;SDS011;33771;48.180;11.400;2022-07-29T13:49:34;3.90;;;1.88;;
48006;SDS011;33771;48.180;11.400;2022-07-29T13:52:00;4.40;;;1.90;;
48006;SDS011;33771;48.180;11.400;2022-07-29T13:54:26;4.97;;;1.65;;
48006;SDS011;33771;48.180;11.400;2022-07-29T13:56:52;3.92;;;1.60;;
48006;SDS011;33771;48.180;11.400;2022-07-29T13:59:17;4.25;;;2.00;;
48006;SDS011;33771;48.180;11.400;2022-07-29T14:01:43;3.50;;;2.13;;
48006;SDS011;33771;48.180;11.400;2022-07-29T14:04:09;4.28;;;1.90;;
48006;SDS011;33771;48.180;11.400;2022-07-29T14:06:35;3.45;;;2.00;;
48006;SDS011;33771;48.180;11.400;2022-07-29T14:09:02;4.95;;;2.17;;
48006;SDS011;33771;48.180;11.400;2022-07-29T14:11:31;2.40;;;1.58;;
48006;SDS011;33771;48.180;11.400;2022-07-29T14:13:57;5.30;;;1.95;;
48006;SDS011;33771;48.180;11.400;2022-07-29T14:16:22;4.28;;;1.83;;
48006;SDS011;33771;48.180;11.400;2022-07-29T14:18:48;6.72;;;2.00;;
48006;SDS011;33771;48.180;11.400;2022-07-29T14:21:13;5.53;;;1.90;;
48006;SDS011;33771;48.180;11.400;2022-07-29T14:23:39;3.55;;;2.20;;
48006;SDS011;33771;48.180;11.400;2022-07-29T14:26:05;5.57;;;1.98;;
48006;SDS011;33771;48.180;11.400;2022-07-29T14:28:31;3.50;;;1.90;;
48006;SDS011;33771;48.180;11.400;2022-07-29T14:30:57;3.70;;;1.85;;
48006;SDS011;33771;48.180;11.400;2022-07-29T14:33:22;6.22;;;2.03;;
48006;SDS011;33771;48.180;11.400;2022-07-29T14:35:48;3.95;;;1.90;;
48006;SDS011;33771;48.180;11.400;2022-07-29T14:38:13;9.20;;;2.30;;
48006;SDS011;33771;48.180;11.400;2022-07-29T14:40:39;6.00;;;1.92;;
48006;SDS011;33771;48.180;11.400;2022-07-29T14:43:05;5.47;;;2.30;;
48006;SDS011;33771;48.180;11.400;2022-07-29T14:45:30;4.90;;;1.95;;
48006;SDS011;33771;48.180;11.400;2022-07-29T14:47:56;3.70;;;2.20;;
48006;SDS011;33771;48.180;11.400;2022-07-29T14:50:22;6.90;;;2.00;;
48006;SDS011;33771;48.180;11.400;2022-07-29T14:52:47;5.38;;;2.10;;
48006;SDS011;33771;48.180;11.400;2022-07-29T14:55:13;4.32;;;2.10;;
48006;SDS011;33771;48.180;11.400;2022-07-29T14:57:39;6.28;;;2.30;;
48006;SDS011;33771;48.180;11.400;2022-07-29T15:00:05;4.60;;;2.30;;
48006;SDS011;33771;48.180;11.400;2022-07-29T15:02:32;8.23;;;2.35;;
48006;SDS011;33771;48.180;11.400;2022-07-29T15:04:58;4.20;;;2.10;;
48006;SDS011;33771;48.180;11.400;2022-07-29T15:07:23;4.05;;;2.00;;
48006;SDS011;33771;48.180;11.400;2022-07-29T15:09:49;4.72;;;2.17;;
48006;SDS011;33771;48.180;11.400;2022-07-29T15:12:14;3.20;;;2.13;;
48006;SDS011;33771;48.180;11.400;2022-07-29T15:14:40;4.25;;;2.50;;
48006;SDS011;33771;48.180;11.400;2022-07-29T15:17:06;5.53;;;2.20;;
48006;SDS011;33771;48.180;11.400;2022-07-29T15:19:31;4.50;;;2.38;;
48006;SDS011;33771;48.180;11.400;2022-07-29T15:21:57;7.13;;;2.50;;
48006;SDS011;33771;48.180;11.400;2022-07-29T15:24:23;4.72;;;2.40;;
48006;SDS011;33771;48.180;11.400;2022-07-29T15:26:49;3.15;;;2.20;;
48006;SDS011;33771;48.180;11.400;2022-07-29T15:29:14;2.95;;;2.15;;
48006;SDS011;33771;48.180;11.400;2022-07-29T15:31:40;5.32;;;2.40;;